sensor_id;sensor_type;location;lat;lon;timestamp;pressure;altitude;pressure_sealevel;temperature;humidity
54512;BME280;40419;47.438;19.026;2023-03-03T00:01:45;100065.03;;;3.81;100.00
54512;BME280;40419;47.438;19.026;2023-03-03T00:04:13;100064.00;;;3.82;100.00
54512;BME280;40419;47.438;19.026;2023-03-03T00:06:44;100063.44;;;3.70;100.00
54512;BME280;40419;47.438;19.026;2023-03-03T00:09:11;100071.03;;;2.73;100.00
54512;BME280;40419;47.438;19.026;2023-03-03T00:11:37;100061.19;;;2.26;100.00
54512;BME280;40419;47.438;19.026;2023-03-03T00:14:27;100066.97;;;2.22;100.00
54512;BME280;40419;47.438;19.026;2023-03-03T00:16:54;100059.41;;;2.07;100.00
54512;BME280;40419;47.438;19.026;2023-03-03T00:19:22;100064.03;;;2.05;100.00
54512;BME280;40419;47.438;19.026;2023-03-03T00:21:49;100051.09;;;2.10;100.00
54512;BME280;40419;47.438;19.026;2023-03-03T00:29:33;100053.16;;;2.74;100.00
54512;BME280;40419;47.438;19.026;2023-03-03T00:34:37;100051.81;;;3.15;100.00
54512;BME280;40419;47.438;19.026;2023-03-03T00:39:44;100053.38;;;2.53;100.00
54512;BME280;40419;47.438;19.026;2023-03-03T00:42:12;100051.25;;;2.56;100.00
54512;BME280;40419;47.438;19.026;2023-03-03T00:44:56;100046.56;;;2.68;100.00
54512;BME280;40419;47.438;19.026;2023-03-03T00:47:36;100056.69;;;3.02;100.00
54512;BME280;40419;47.438;19.026;2023-03-03T00:52:34;100042.22;;;2.29;100.00
54512;BME280;40419;47.438;19.026;2023-03-03T00:55:02;100041.84;;;2.05;100.00
54512;BME280;40419;47.438;19.026;2023-03-03T00:57:33;100038.75;;;2.00;100.00
54512;BME280;40419;47.438;19.026;2023-03-03T00:59:59;100040.59;;;1.80;100.00
54512;BME280;40419;47.438;19.026;2023-03-03T01:02:32;100037.66;;;1.73;100.00
54512;BME280;40419;47.438;19.026;2023-03-03T01:05:03;100039.78;;;1.69;100.00
54512;BME280;40419;47.438;19.026;2023-03-03T01:07:28;100034.41;;;1.89;100.00
54512;BME280;40419;47.438;19.026;2023-03-03T01:09:54;100034.41;;;1.89;100.00
54512;BME280;40419;47.438;19.026;2023-03-03T01:12:22;100033.00;;;1.75;100.00
54512;BME280;40419;47.438;19.026;2023-03-03T01:14:47;100025.13;;;1.93;100.00
54512;BME280;40419;47.438;19.026;2023-03-03T01:17:19;100023.03;;;1.97;100.00
54512;BME280;40419;47.438;19.026;2023-03-03T01:19:47;100015.25;;;2.03;100.00
54512;BME280;40419;47.438;19.026;2023-03-03T01:22:15;100016.25;;;2.02;100.00
54512;BME280;40419;47.438;19.026;2023-03-03T01:24:45;100017.41;;;2.00;100.00
54512;BME280;40419;47.438;19.026;2023-03-03T01:27:15;100026.38;;;2.08;100.00
54512;BME280;40419;47.438;19.026;2023-03-03T01:29:46;100020.75;;;2.11;100.00
54512;BME280;40419;47.438;19.026;2023-03-03T01:32:14;100020.47;;;2.05;100.00
54512;BME280;40419;47.438;19.026;2023-03-03T01:34:41;100012.06;;;1.90;100.00
54512;BME280;40419;47.438;19.026;2023-03-03T01:37:09;100006.88;;;1.79;100.00
54512;BME280;40419;47.438;19.026;2023-03-03T01:39:37;100005.63;;;1.73;100.00
54512;BME280;40419;47.438;19.026;2023-03-03T01:42:05;100005.88;;;1.80;100.00
54512;BME280;40419;47.438;19.026;2023-03-03T01:44:34;100004.78;;;1.72;100.00
54512;BME280;40419;47.438;19.026;2023-03-03T01:47:21;100007.19;;;1.56;100.00
54512;BME280;40419;47.438;19.026;2023-03-03T01:49:57;100010.84;;;1.65;100.00
54512;BME280;40419;47.438;19.026;2023-03-03T01:52:35;100005.78;;;1.52;100.00
54512;BME280;40419;47.438;19.026;2023-03-03T01:55:14;100004.34;;;1.67;100.00
54512;BME280;40419;47.438;19.026;2023-03-03T01:57:46;100000.00;;;1.76;100.00
54512;BME280;40419;47.438;19.026;2023-03-03T02:00:15;99998.28;;;1.75;100.00
54512;BME280;40419;47.438;19.026;2023-03-03T02:02:41;100007.88;;;1.87;100.00
54512;BME280;40419;47.438;19.026;2023-03-03T02:05:13;100008.25;;;1.83;100.00
54512;BME280;40419;47.438;19.026;2023-03-03T02:07:39;99996.84;;;2.00;100.00
54512;BME280;40419;47.438;19.026;2023-03-03T02:10:15;100007.88;;;1.87;100.00
54512;BME280;40419;47.438;19.026;2023-03-03T02:12:51;100000.88;;;2.24;100.00
54512;BME280;40419;47.438;19.026;2023-03-03T02:17:59;99995.63;;;2.70;100.00
54512;BME280;40419;47.438;19.026;2023-03-03T02:20:59;99991.66;;;1.99;100.00
54512;BME280;40419;47.438;19.026;2023-03-03T02:23:54;99993.22;;;2.01;100.00
54512;BME280;40419;47.438;19.026;2023-03-03T02:26:27;99992.06;;;2.13;100.00
54512;BME280;40419;47.438;19.026;2023-03-03T02:29:01;99997.47;;;2.32;100.00
54512;BME280;40419;47.438;19.026;2023-03-03T02:31:33;99993.47;;;2.45;100.00
54512;BME280;40419;47.438;19.026;2023-03-03T02:33:59;99995.97;;;2.19;100.00
54512;BME280;40419;47.438;19.026;2023-03-03T02:36:36;99995.09;;;2.28;100.00
54512;BME280;40419;47.438;19.026;2023-03-03T02:44:12;99986.31;;;2.08;100.00
54512;BME280;40419;47.438;19.026;2023-03-03T02:46:46;99987.31;;;1.98;100.00
54512;BME280;40419;47.438;19.026;2023-03-03T02:49:20;99984.47;;;1.99;100.00
54512;BME280;40419;47.438;19.026;2023-03-03T02:51:52;99976.38;;;1.91;100.00
54512;BME280;40419;47.438;19.026;2023-03-03T02:54:23;99991.19;;;2.23;100.00
54512;BME280;40419;47.438;19.026;2023-03-03T02:56:55;99983.69;;;2.36;100.00
54512;BME280;40419;47.438;19.026;2023-03-03T02:59:23;99975.56;;;2.56;100.00
54512;BME280;40419;47.438;19.026;2023-03-03T03:01:50;99973.69;;;2.66;100.00
54512;BME280;40419;47.438;19.026;2023-03-03T03:04:24;99971.03;;;2.66;100.00
54512;BME280;40419;47.438;19.026;2023-03-03T03:06:54;99974.84;;;2.63;100.00
54512;BME280;40419;47.438;19.026;2023-03-03T03:09:22;99966.09;;;2.89;100.00
54512;BME280;40419;47.438;19.026;2023-03-03T03:11:54;99972.38;;;2.98;100.00
54512;BME280;40419;47.438;19.026;2023-03-03T03:14:23;99965.81;;;3.10;100.00
54512;BME280;40419;47.438;19.026;2023-03-03T03:16:52;99959.19;;;3.14;100.00
54512;BME280;40419;47.438;19.026;2023-03-03T03:19:23;99964.59;;;3.23;100.00
54512;BME280;40419;47.438;19.026;2023-03-03T03:21:48;99952.63;;;3.53;100.00
54512;BME280;40419;47.438;19.026;2023-03-03T03:24:22;99955.00;;;3.56;100.00
54512;BME280;40419;47.438;19.026;2023-03-03T03:26:56;99954.53;;;3.61;100.00
54512;BME280;40419;47.438;19.026;2023-03-03T03:29:31;99956.63;;;3.67;100.00
54512;BME280;40419;47.438;19.026;2023-03-03T03:31:59;99949.25;;;3.69;100.00
54512;BME280;40419;47.438;19.026;2023-03-03T03:34:24;99938.13;;;3.55;100.00
54512;BME280;40419;47.438;19.026;2023-03-03T03:36:56;99951.16;;;3.32;100.00
54512;BME280;40419;47.438;19.026;2023-03-03T03:39:24;99950.69;;;3.19;100.00
54512;BME280;40419;47.438;19.026;2023-03-03T03:41:53;99950.69;;;3.19;100.00
54512;BME280;40419;47.438;19.026;2023-03-03T03:44:21;99947.91;;;3.11;100.00
54512;BME280;40419;47.438;19.026;2023-03-03T03:46:53;99945.84;;;2.87;100.00
54512;BME280;40419;47.438;19.026;2023-03-03T03:49:21;99947.53;;;2.88;100.00
54512;BME280;40419;47.438;19.026;2023-03-03T03:51:54;99949.91;;;2.91;100.00
54512;BME280;40419;47.438;19.026;2023-03-03T03:54:27;99942.03;;;3.07;100.00
54512;BME280;40419;47.438;19.026;2023-03-03T03:56:56;99940.81;;;3.19;100.00
54512;BME280;40419;47.438;19.026;2023-03-03T03:59:22;99933.88;;;3.27;100.00
54512;BME280;40419;47.438;19.026;2023-03-03T04:01:48;99939.91;;;3.29;100.00
54512;BME280;40419;47.438;19.026;2023-03-03T04:04:17;99931.94;;;3.37;100.00
54512;BME280;40419;47.438;19.026;2023-03-03T04:06:43;99928.09;;;3.40;100.00
54512;BME280;40419;47.438;19.026;2023-03-03T04:09:12;99929.03;;;3.30;100.00
54512;BME280;40419;47.438;19.026;2023-03-03T04:11:38;99931.56;;;3.32;100.00
54512;BME280;40419;47.438;19.026;2023-03-03T04:14:09;99933.69;;;3.46;100.00
54512;BME280;40419;47.438;19.026;2023-03-03T04:16:36;99932.13;;;3.62;100.00
54512;BME280;40419;47.438;19.026;2023-03-03T04:19:05;99929.28;;;3.63;100.00
54512;BME280;40419;47.438;19.026;2023-03-03T04:21:35;99936.53;;;3.45;100.00
54512;BME280;40419;47.438;19.026;2023-03-03T04:24:01;99928.81;;;3.42;100.00
54512;BME280;40419;47.438;19.026;2023-03-03T04:26:29;99932.56;;;3.49;100.00
54512;BME280;40419;47.438;19.026;2023-03-03T04:28:57;99927.88;;;3.33;100.00
54512;BME280;40419;47.438;19.026;2023-03-03T04:31:31;99924.91;;;3.36;100.00
54512;BME280;40419;47.438;19.026;2023-03-03T04:33:59;99921.56;;;3.34;100.00
54512;BME280;40419;47.438;19.026;2023-03-03T04:36:28;99925.16;;;3.25;100.00
54512;BME280;40419;47.438;19.026;2023-03-03T04:38:54;99924.75;;;3.01;100.00
54512;BME280;40419;47.438;19.026;2023-03-03T04:41:22;99933.34;;;3.05;100.00
54512;BME280;40419;47.438;19.026;2023-03-03T04:43:50;99933.66;;;3.02;100.00
54512;BME280;40419;47.438;19.026;2023-03-03T04:46:18;99926.97;;;3.06;100.00
54512;BME280;40419;47.438;19.026;2023-03-03T04:48:46;99921.47;;;3.26;100.00
54512;BME280;40419;47.438;19.026;2023-03-03T04:51:15;99917.44;;;3.22;100.00
54512;BME280;40419;47.438;19.026;2023-03-03T04:53:45;99915.50;;;3.32;100.00
54512;BME280;40419;47.438;19.026;2023-03-03T04:56:16;99920.53;;;3.35;100.00
54512;BME280;40419;47.438;19.026;2023-03-03T04:58:42;99912.50;;;3.35;100.00
54512;BME280;40419;47.438;19.026;2023-03-03T05:01:12;99924.91;;;3.00;100.00
54512;BME280;40419;47.438;19.026;2023-03-03T05:03:40;99926.44;;;3.21;100.00
54512;BME280;40419;47.438;19.026;2023-03-03T05:06:09;99922.22;;;3.36;100.00
54512;BME280;40419;47.438;19.026;2023-03-03T05:08:36;99933.09;;;2.98;100.00
54512;BME280;40419;47.438;19.026;2023-03-03T05:11:07;99936.31;;;2.84;100.00
54512;BME280;40419;47.438;19.026;2023-03-03T05:13:35;99929.47;;;2.90;100.00
54512;BME280;40419;47.438;19.026;2023-03-03T05:16:01;99929.34;;;3.09;100.00
54512;BME280;40419;47.438;19.026;2023-03-03T05:18:29;99918.13;;;3.24;100.00
54512;BME280;40419;47.438;19.026;2023-03-03T05:21:02;99933.41;;;3.13;100.00
54512;BME280;40419;47.438;19.026;2023-03-03T05:23:30;99928.00;;;3.05;100.00
54512;BME280;40419;47.438;19.026;2023-03-03T05:26:00;99931.81;;;3.03;100.00
54512;BME280;40419;47.438;19.026;2023-03-03T05:28:28;99933.78;;;3.18;100.00
54512;BME280;40419;47.438;19.026;2023-03-03T05:30:56;99927.28;;;3.39;100.00
54512;BME280;40419;47.438;19.026;2023-03-03T05:33:24;99934.06;;;3.51;100.00
54512;BME280;40419;47.438;19.026;2023-03-03T05:35:53;99934.06;;;3.51;100.00
54512;BME280;40419;47.438;19.026;2023-03-03T05:38:24;99934.22;;;3.50;100.00
54512;BME280;40419;47.438;19.026;2023-03-03T05:40:52;99935.75;;;3.52;100.00
54512;BME280;40419;47.438;19.026;2023-03-03T05:43:21;99937.97;;;3.57;100.00
54512;BME280;40419;47.438;19.026;2023-03-03T05:45:54;99938.63;;;3.59;100.00
54512;BME280;40419;47.438;19.026;2023-03-03T05:48:23;99944.84;;;3.60;100.00
54512;BME280;40419;47.438;19.026;2023-03-03T05:50:48;99939.25;;;3.53;100.00
54512;BME280;40419;47.438;19.026;2023-03-03T05:53:14;99943.56;;;3.46;100.00
54512;BME280;40419;47.438;19.026;2023-03-03T05:55:42;99946.66;;;3.59;100.00
54512;BME280;40419;47.438;19.026;2023-03-03T05:58:10;99942.00;;;3.61;100.00
54512;BME280;40419;47.438;19.026;2023-03-03T06:00:36;99941.69;;;3.64;100.00
54512;BME280;40419;47.438;19.026;2023-03-03T06:03:02;99943.03;;;3.42;100.00
54512;BME280;40419;47.438;19.026;2023-03-03T06:05:37;99942.72;;;3.45;100.00
54512;BME280;40419;47.438;19.026;2023-03-03T06:08:04;99944.53;;;3.63;100.00
54512;BME280;40419;47.438;19.026;2023-03-03T06:10:34;99941.22;;;3.69;100.00
54512;BME280;40419;47.438;19.026;2023-03-03T06:13:03;99952.00;;;3.77;100.00
54512;BME280;40419;47.438;19.026;2023-03-03T06:15:31;99946.94;;;3.74;100.00
54512;BME280;40419;47.438;19.026;2023-03-03T06:18:04;99947.69;;;3.58;100.00
54512;BME280;40419;47.438;19.026;2023-03-03T06:20:32;99953.38;;;3.81;100.00
54512;BME280;40419;47.438;19.026;2023-03-03T06:22:59;99946.88;;;3.84;100.00
54512;BME280;40419;47.438;19.026;2023-03-03T06:25:25;99955.56;;;3.86;100.00
54512;BME280;40419;47.438;19.026;2023-03-03T06:27:50;99966.09;;;3.79;100.00
54512;BME280;40419;47.438;19.026;2023-03-03T06:30:21;99964.22;;;3.80;100.00
54512;BME280;40419;47.438;19.026;2023-03-03T06:32:46;99961.25;;;3.83;100.00
54512;BME280;40419;47.438;19.026;2023-03-03T06:35:12;99966.28;;;3.86;100.00
54512;BME280;40419;47.438;19.026;2023-03-03T06:37:40;99965.97;;;3.89;100.00
54512;BME280;40419;47.438;19.026;2023-03-03T06:40:08;99973.19;;;3.88;100.00
54512;BME280;40419;47.438;19.026;2023-03-03T06:42:39;99969.75;;;4.04;100.00
54512;BME280;40419;47.438;19.026;2023-03-03T06:45:07;99959.25;;;4.11;100.00
54512;BME280;40419;47.438;19.026;2023-03-03T06:47:35;99963.03;;;4.26;100.00
54512;BME280;40419;47.438;19.026;2023-03-03T06:50:03;99967.00;;;4.57;100.00
54512;BME280;40419;47.438;19.026;2023-03-03T06:52:32;99961.41;;;4.42;100.00
54512;BME280;40419;47.438;19.026;2023-03-03T06:55:15;99959.09;;;4.47;100.00
54512;BME280;40419;47.438;19.026;2023-03-03T06:57:45;99972.22;;;4.58;100.00
54512;BME280;40419;47.438;19.026;2023-03-03T07:02:40;99971.88;;;4.61;100.00
54512;BME280;40419;47.438;19.026;2023-03-03T07:05:11;99976.75;;;4.58;100.00
54512;BME280;40419;47.438;19.026;2023-03-03T07:07:44;99985.47;;;4.60;100.00
54512;BME280;40419;47.438;19.026;2023-03-03T07:10:22;99986.41;;;4.42;100.00
54512;BME280;40419;47.438;19.026;2023-03-03T07:12:55;99985.75;;;4.49;100.00
54512;BME280;40419;47.438;19.026;2023-03-03T07:15:36;99990.66;;;4.61;100.00
54512;BME280;40419;47.438;19.026;2023-03-03T07:18:02;99987.34;;;4.68;100.00
54512;BME280;40419;47.438;19.026;2023-03-03T07:20:38;99990.34;;;4.65;100.00
54512;BME280;40419;47.438;19.026;2023-03-03T07:23:17;99994.22;;;4.70;100.00
54512;BME280;40419;47.438;19.026;2023-03-03T07:25:45;99994.81;;;4.56;100.00
54512;BME280;40419;47.438;19.026;2023-03-03T07:30:39;100005.69;;;4.89;100.00
54512;BME280;40419;47.438;19.026;2023-03-03T07:33:18;100002.94;;;4.72;100.00
54512;BME280;40419;47.438;19.026;2023-03-03T07:35:44;100005.69;;;4.89;100.00
54512;BME280;40419;47.438;19.026;2023-03-03T07:38:30;100007.94;;;5.02;100.00
54512;BME280;40419;47.438;19.026;2023-03-03T07:41:00;100000.88;;;5.01;100.00
54512;BME280;40419;47.438;19.026;2023-03-03T07:48:37;100005.75;;;5.05;100.00
54512;BME280;40419;47.438;19.026;2023-03-03T07:51:15;100016.34;;;5.15;100.00
54512;BME280;40419;47.438;19.026;2023-03-03T07:53:43;100007.97;;;5.18;100.00
54512;BME280;40419;47.438;19.026;2023-03-03T07:56:26;100009.66;;;5.27;100.00
54512;BME280;40419;47.438;19.026;2023-03-03T07:58:55;100008.59;;;5.04;100.00
54512;BME280;40419;47.438;19.026;2023-03-03T08:03:50;100009.47;;;5.12;100.00
54512;BME280;40419;47.438;19.026;2023-03-03T08:11:50;100001.97;;;5.41;100.00
54512;BME280;40419;47.438;19.026;2023-03-03T08:14:24;100006.16;;;5.60;100.00
54512;BME280;40419;47.438;19.026;2023-03-03T08:16:51;100004.19;;;5.78;100.00
54512;BME280;40419;47.438;19.026;2023-03-03T08:19:19;100009.53;;;5.95;100.00
54512;BME280;40419;47.438;19.026;2023-03-03T08:21:47;99999.09;;;6.33;100.00
54512;BME280;40419;47.438;19.026;2023-03-03T08:24:17;99997.19;;;6.50;100.00
54512;BME280;40419;47.438;19.026;2023-03-03T08:26:46;100001.06;;;6.55;100.00
54512;BME280;40419;47.438;19.026;2023-03-03T08:29:11;100002.88;;;6.55;100.00
54512;BME280;40419;47.438;19.026;2023-03-03T08:31:37;100006.19;;;6.73;100.00
54512;BME280;40419;47.438;19.026;2023-03-03T08:34:02;100003.81;;;6.79;100.00
54512;BME280;40419;47.438;19.026;2023-03-03T08:36:28;100005.34;;;6.73;100.00
54512;BME280;40419;47.438;19.026;2023-03-03T08:38:55;100011.53;;;6.82;100.00
54512;BME280;40419;47.438;19.026;2023-03-03T08:41:25;100010.31;;;6.92;100.00
54512;BME280;40419;47.438;19.026;2023-03-03T08:43:53;100003.47;;;6.82;100.00
54512;BME280;40419;47.438;19.026;2023-03-03T08:46:19;99996.91;;;6.84;100.00
54512;BME280;40419;47.438;19.026;2023-03-03T08:48:46;100002.41;;;6.91;100.00
54512;BME280;40419;47.438;19.026;2023-03-03T08:51:14;100006.53;;;7.10;100.00
54512;BME280;40419;47.438;19.026;2023-03-03T08:53:42;100011.84;;;7.18;100.00
54512;BME280;40419;47.438;19.026;2023-03-03T08:56:08;100008.03;;;7.13;100.00
54512;BME280;40419;47.438;19.026;2023-03-03T08:58:36;100010.03;;;7.19;100.00
54512;BME280;40419;47.438;19.026;2023-03-03T09:01:03;100010.38;;;7.16;100.00
54512;BME280;40419;47.438;19.026;2023-03-03T09:03:29;100004.84;;;7.09;100.00
54512;BME280;40419;47.438;19.026;2023-03-03T09:05:58;100005.16;;;7.14;100.00
54512;BME280;40419;47.438;19.026;2023-03-03T09:08:26;100003.50;;;7.13;100.00
54512;BME280;40419;47.438;19.026;2023-03-03T09:10:51;100002.25;;;7.24;100.00
54512;BME280;40419;47.438;19.026;2023-03-03T09:13:19;100010.97;;;7.26;100.00
54512;BME280;40419;47.438;19.026;2023-03-03T09:15:45;100004.50;;;7.12;100.00
54512;BME280;40419;47.438;19.026;2023-03-03T09:20:44;100003.56;;;7.28;100.00
54512;BME280;40419;47.438;19.026;2023-03-03T09:23:32;100000.22;;;7.49;100.00
54512;BME280;40419;47.438;19.026;2023-03-03T09:28:36;99998.53;;;7.71;100.00
54512;BME280;40419;47.438;19.026;2023-03-03T09:31:20;99997.94;;;7.84;100.00
54512;BME280;40419;47.438;19.026;2023-03-03T09:33:47;99993.72;;;7.81;100.00
54512;BME280;40419;47.438;19.026;2023-03-03T09:36:28;99991.53;;;8.00;100.00
54512;BME280;40419;47.438;19.026;2023-03-03T09:38:58;100000.72;;;8.29;100.00
54512;BME280;40419;47.438;19.026;2023-03-03T09:44:54;99998.47;;;8.18;100.00
54512;BME280;40419;47.438;19.026;2023-03-03T09:56:15;100004.75;;;7.95;98.73
54512;BME280;40419;47.438;19.026;2023-03-03T10:01:46;99996.59;;;8.03;98.37
54512;BME280;40419;47.438;19.026;2023-03-03T10:04:54;100006.56;;;7.79;98.47
54512;BME280;40419;47.438;19.026;2023-03-03T10:10:04;99994.84;;;8.25;96.72
54512;BME280;40419;47.438;19.026;2023-03-03T10:12:51;99996.97;;;8.30;94.94
54512;BME280;40419;47.438;19.026;2023-03-03T10:26:20;99982.13;;;8.94;89.10
54512;BME280;40419;47.438;19.026;2023-03-03T10:29:00;99985.66;;;8.79;91.04
54512;BME280;40419;47.438;19.026;2023-03-03T11:10:03;99946.16;;;9.51;86.52
54512;BME280;40419;47.438;19.026;2023-03-03T11:12:49;99936.59;;;9.77;83.77
54512;BME280;40419;47.438;19.026;2023-03-03T11:21:30;99923.16;;;9.62;84.86
54512;BME280;40419;47.438;19.026;2023-03-03T11:45:50;99896.88;;;10.13;83.94
54512;BME280;40419;47.438;19.026;2023-03-03T11:51:06;99888.56;;;10.14;85.02
54512;BME280;40419;47.438;19.026;2023-03-03T11:54:00;99888.44;;;9.94;85.81
54512;BME280;40419;47.438;19.026;2023-03-03T11:56:34;99881.25;;;10.08;85.08
54512;BME280;40419;47.438;19.026;2023-03-03T11:59:16;99884.84;;;10.15;85.15
54512;BME280;40419;47.438;19.026;2023-03-03T12:05:07;99876.94;;;10.20;85.66
54512;BME280;40419;47.438;19.026;2023-03-03T12:10:29;99873.84;;;10.23;83.21
54512;BME280;40419;47.438;19.026;2023-03-03T12:13:03;99869.59;;;10.49;82.96
54512;BME280;40419;47.438;19.026;2023-03-03T12:15:40;99861.09;;;10.52;82.56
54512;BME280;40419;47.438;19.026;2023-03-03T12:23:45;99861.88;;;10.39;84.43
54512;BME280;40419;47.438;19.026;2023-03-03T12:34:33;99860.59;;;10.35;81.66
54512;BME280;40419;47.438;19.026;2023-03-03T12:37:32;99848.88;;;10.28;82.81
54512;BME280;40419;47.438;19.026;2023-03-03T12:45:39;99861.53;;;10.56;81.26
54512;BME280;40419;47.438;19.026;2023-03-03T12:50:43;99851.91;;;10.46;82.39
54512;BME280;40419;47.438;19.026;2023-03-03T12:54:08;99855.75;;;10.72;80.86
54512;BME280;40419;47.438;19.026;2023-03-03T13:06:29;99846.63;;;10.93;77.17
54512;BME280;40419;47.438;19.026;2023-03-03T13:17:41;99830.00;;;11.23;72.37
54512;BME280;40419;47.438;19.026;2023-03-03T13:22:56;99821.38;;;10.73;70.94
54512;BME280;40419;47.438;19.026;2023-03-03T13:28:21;99822.19;;;10.60;74.20
54512;BME280;40419;47.438;19.026;2023-03-03T13:30:57;99822.00;;;10.68;74.58
54512;BME280;40419;47.438;19.026;2023-03-03T13:33:29;99820.78;;;10.91;74.30
54512;BME280;40419;47.438;19.026;2023-03-03T13:36:08;99828.25;;;10.75;73.25
54512;BME280;40419;47.438;19.026;2023-03-03T13:38:41;99825.16;;;10.78;71.66
54512;BME280;40419;47.438;19.026;2023-03-03T13:41:22;99815.38;;;10.91;70.97
54512;BME280;40419;47.438;19.026;2023-03-03T13:43:58;99806.38;;;10.84;71.08
54512;BME280;40419;47.438;19.026;2023-03-03T13:57:59;99796.34;;;10.57;70.25
54512;BME280;40419;47.438;19.026;2023-03-03T14:01:11;99801.16;;;10.55;68.88
54512;BME280;40419;47.438;19.026;2023-03-03T14:05:59;99799.88;;;10.51;71.25
54512;BME280;40419;47.438;19.026;2023-03-03T14:11:10;99800.25;;;10.41;73.06
54512;BME280;40419;47.438;19.026;2023-03-03T14:16:31;99793.53;;;10.31;72.40
54512;BME280;40419;47.438;19.026;2023-03-03T14:19:34;99798.56;;;10.34;73.30
54512;BME280;40419;47.438;19.026;2023-03-03T14:22:15;99789.50;;;10.61;71.40
54512;BME280;40419;47.438;19.026;2023-03-03T14:25:08;99786.53;;;10.50;70.35
54512;BME280;40419;47.438;19.026;2023-03-03T14:35:37;99778.19;;;10.44;71.17
54512;BME280;40419;47.438;19.026;2023-03-03T14:40:34;99771.66;;;10.25;72.90
54512;BME280;40419;47.438;19.026;2023-03-03T14:43:07;99775.88;;;10.35;71.80
54512;BME280;40419;47.438;19.026;2023-03-03T14:45:45;99766.66;;;10.22;70.44
54512;BME280;40419;47.438;19.026;2023-03-03T14:48:22;99763.50;;;10.19;69.41
54512;BME280;40419;47.438;19.026;2023-03-03T14:50:58;99765.56;;;10.10;70.46
54512;BME280;40419;47.438;19.026;2023-03-03T14:53:38;99769.72;;;10.06;70.88
54512;BME280;40419;47.438;19.026;2023-03-03T14:56:21;99770.66;;;9.91;71.79
54512;BME280;40419;47.438;19.026;2023-03-03T14:58:48;99774.03;;;10.00;71.51
54512;BME280;40419;47.438;19.026;2023-03-03T15:06:33;99776.19;;;9.70;70.06
54512;BME280;40419;47.438;19.026;2023-03-03T15:09:34;99779.88;;;9.62;71.54
54512;BME280;40419;47.438;19.026;2023-03-03T15:12:18;99775.69;;;9.60;71.99
54512;BME280;40419;47.438;19.026;2023-03-03T15:15:36;99771.72;;;9.55;71.68
54512;BME280;40419;47.438;19.026;2023-03-03T15:22:56;99772.81;;;9.33;72.51
54512;BME280;40419;47.438;19.026;2023-03-03T15:25:48;99780.00;;;9.19;72.46
54512;BME280;40419;47.438;19.026;2023-03-03T15:31:19;99788.28;;;9.17;71.79
54512;BME280;40419;47.438;19.026;2023-03-03T15:42:10;99792.91;;;9.23;68.92
54512;BME280;40419;47.438;19.026;2023-03-03T15:45:58;99795.66;;;9.02;70.28
54512;BME280;40419;47.438;19.026;2023-03-03T15:54:23;99804.53;;;8.74;71.84
54512;BME280;40419;47.438;19.026;2023-03-03T15:56:56;99804.00;;;8.64;72.67
54512;BME280;40419;47.438;19.026;2023-03-03T16:04:52;99802.56;;;8.46;72.28
54512;BME280;40419;47.438;19.026;2023-03-03T16:15:23;99826.69;;;8.18;72.79
54512;BME280;40419;47.438;19.026;2023-03-03T16:23:54;99827.06;;;8.00;73.11
54512;BME280;40419;47.438;19.026;2023-03-03T16:37:31;99830.78;;;7.69;73.75
54512;BME280;40419;47.438;19.026;2023-03-03T16:42:35;99849.28;;;7.57;74.14
54512;BME280;40419;47.438;19.026;2023-03-03T16:56:13;99857.41;;;7.34;74.61
54512;BME280;40419;47.438;19.026;2023-03-03T17:19:22;99877.94;;;6.89;74.84
54512;BME280;40419;47.438;19.026;2023-03-03T17:27:53;99871.56;;;6.90;73.35
54512;BME280;40419;47.438;19.026;2023-03-03T17:30:47;99871.94;;;6.79;74.04
54512;BME280;40419;47.438;19.026;2023-03-03T17:46:55;99877.06;;;6.65;74.29
54512;BME280;40419;47.438;19.026;2023-03-03T17:52:58;99871.06;;;6.55;75.46
54512;BME280;40419;47.438;19.026;2023-03-03T18:03:22;99881.47;;;6.27;76.93
54512;BME280;40419;47.438;19.026;2023-03-03T18:11:58;99887.25;;;6.07;78.41
54512;BME280;40419;47.438;19.026;2023-03-03T18:22:51;99883.88;;;6.05;77.84
54512;BME280;40419;47.438;19.026;2023-03-03T18:25:24;99882.22;;;5.96;77.59
54512;BME280;40419;47.438;19.026;2023-03-03T18:30:29;99875.50;;;6.00;77.61
54512;BME280;40419;47.438;19.026;2023-03-03T18:33:08;99886.75;;;6.03;77.79
54512;BME280;40419;47.438;19.026;2023-03-03T18:35:46;99883.22;;;6.03;77.79
54512;BME280;40419;47.438;19.026;2023-03-03T18:41:00;99884.56;;;5.99;77.65
54512;BME280;40419;47.438;19.026;2023-03-03T18:49:05;99884.91;;;6.04;76.25
54512;BME280;40419;47.438;19.026;2023-03-03T19:04:52;99884.06;;;5.87;75.18
54512;BME280;40419;47.438;19.026;2023-03-03T19:07:27;99886.78;;;5.79;75.33
54512;BME280;40419;47.438;19.026;2023-03-03T19:10:02;99887.09;;;5.84;75.24
54512;BME280;40419;47.438;19.026;2023-03-03T19:12:48;99882.09;;;5.73;75.11
54512;BME280;40419;47.438;19.026;2023-03-03T19:18:16;99891.34;;;5.70;75.54
54512;BME280;40419;47.438;19.026;2023-03-03T19:21:04;99894.03;;;5.62;75.77
54512;BME280;40419;47.438;19.026;2023-03-03T19:23:49;99890.50;;;5.70;74.92
54512;BME280;40419;47.438;19.026;2023-03-03T19:32:24;99896.56;;;5.63;75.16
54512;BME280;40419;47.438;19.026;2023-03-03T19:34:59;99896.91;;;5.60;75.35
54512;BME280;40419;47.438;19.026;2023-03-03T20:13:11;99907.63;;;5.36;71.65
54512;BME280;40419;47.438;19.026;2023-03-03T20:18:31;99910.84;;;5.39;70.40
54512;BME280;40419;47.438;19.026;2023-03-03T20:24:19;99912.00;;;5.20;69.77
54512;BME280;40419;47.438;19.026;2023-03-03T20:30:06;99923.38;;;4.97;71.53
54512;BME280;40419;47.438;19.026;2023-03-03T20:43:56;99921.22;;;5.09;70.26
54512;BME280;40419;47.438;19.026;2023-03-03T20:52:04;99910.94;;;4.96;70.95
54512;BME280;40419;47.438;19.026;2023-03-03T21:02:35;99905.91;;;4.85;70.85